sensor_id;sensor_type;location;lat;lon;timestamp;P1;P2;P0
27143;PMS1003;14672;50.250;8.312;2022-12-13T00:01:21;33.00;28.50;14.50
27143;PMS1003;14672;50.250;8.312;2022-12-13T00:03:47;42.50;36.00;14.50
27143;PMS1003;14672;50.250;8.312;2022-12-13T00:06:13;34.00;28.67;16.00
27143;PMS1003;14672;50.250;8.312;2022-12-13T00:08:39;36.67;32.00;12.67
27143;PMS1003;14672;50.250;8.312;2022-12-13T00:11:06;40.50;37.50;15.00
27143;PMS1003;14672;50.250;8.312;2022-12-13T00:13:36;36.50;33.00;15.00
27143;PMS1003;14672;50.250;8.312;2022-12-13T00:16:04;36.00;34.00;17.50
27143;PMS1003;14672;50.250;8.312;2022-12-13T00:18:33;40.00;33.00;14.00
27143;PMS1003;14672;50.250;8.312;2022-12-13T00:21:02;38.00;36.00;18.00
27143;PMS1003;14672;50.250;8.312;2022-12-13T00:23:30;34.00;29.50;12.00
27143;PMS1003;14672;50.250;8.312;2022-12-13T00:26:01;34.50;31.50;18.00
27143;PMS1003;14672;50.250;8.312;2022-12-13T00:28:31;40.00;33.33;14.67
27143;PMS1003;14672;50.250;8.312;2022-12-13T00:30:58;32.80;29.60;15.20
27143;PMS1003;14672;50.250;8.312;2022-12-13T00:33:25;33.20;32.00;15.60
27143;PMS1003;14672;50.250;8.312;2022-12-13T00:35:52;49.20;44.00;22.80
27143;PMS1003;14672;50.250;8.312;2022-12-13T00:38:19;45.20;35.60;17.60
27143;PMS1003;14672;50.250;8.312;2022-12-13T00:40:46;33.20;29.60;14.80
27143;PMS1003;14672;50.250;8.312;2022-12-13T00:43:12;27.00;24.00;12.50
27143;PMS1003;14672;50.250;8.312;2022-12-13T00:45:38;37.50;34.00;17.50
27143;PMS1003;14672;50.250;8.312;2022-12-13T00:48:05;39.20;34.80;16.00
27143;PMS1003;14672;50.250;8.312;2022-12-13T00:50:31;33.60;33.60;16.00
27143;PMS1003;14672;50.250;8.312;2022-12-13T00:52:58;33.00;30.50;13.00
27143;PMS1003;14672;50.250;8.312;2022-12-13T00:55:25;40.40;38.40;14.40
27143;PMS1003;14672;50.250;8.312;2022-12-13T00:57:51;39.60;35.20;15.20
27143;PMS1003;14672;50.250;8.312;2022-12-13T01:00:17;34.00;28.00;14.67
27143;PMS1003;14672;50.250;8.312;2022-12-13T01:02:43;43.00;33.00;13.50
27143;PMS1003;14672;50.250;8.312;2022-12-13T01:05:10;40.40;33.60;16.00
27143;PMS1003;14672;50.250;8.312;2022-12-13T01:07:36;38.00;37.33;15.33
27143;PMS1003;14672;50.250;8.312;2022-12-13T01:10:03;41.00;31.50;11.00
27143;PMS1003;14672;50.250;8.312;2022-12-13T01:12:32;37.20;29.60;15.20
27143;PMS1003;14672;50.250;8.312;2022-12-13T01:14:58;37.00;31.00;14.00
27143;PMS1003;14672;50.250;8.312;2022-12-13T01:17:25;31.20;28.40;14.80
27143;PMS1003;14672;50.250;8.312;2022-12-13T01:19:51;46.00;41.50;15.50
27143;PMS1003;14672;50.250;8.312;2022-12-13T01:22:17;33.33;31.33;14.00
27143;PMS1003;14672;50.250;8.312;2022-12-13T01:24:43;40.00;34.50;12.50
27143;PMS1003;14672;50.250;8.312;2022-12-13T01:27:08;28.67;28.00;12.00
27143;PMS1003;14672;50.250;8.312;2022-12-13T01:29:34;30.67;29.33;12.00
27143;PMS1003;14672;50.250;8.312;2022-12-13T01:32:01;35.50;31.50;11.50
27143;PMS1003;14672;50.250;8.312;2022-12-13T01:34:27;31.50;26.50;11.50
27143;PMS1003;14672;50.250;8.312;2022-12-13T01:36:53;36.67;30.00;15.33
27143;PMS1003;14672;50.250;8.312;2022-12-13T01:39:21;34.00;28.00;13.00
27143;PMS1003;14672;50.250;8.312;2022-12-13T01:41:49;34.00;31.20;13.20
27143;PMS1003;14672;50.250;8.312;2022-12-13T01:47:23;29.00;28.50;13.00
27143;PMS1003;14672;50.250;8.312;2022-12-13T01:50:00;32.00;29.00;12.50
27143;PMS1003;14672;50.250;8.312;2022-12-13T01:52:32;38.40;34.80;17.60
27143;PMS1003;14672;50.250;8.312;2022-12-13T01:54:59;36.00;28.50;11.50
27143;PMS1003;14672;50.250;8.312;2022-12-13T01:57:28;30.40;29.20;15.20
27143;PMS1003;14672;50.250;8.312;2022-12-13T01:59:56;33.00;28.50;13.00
27143;PMS1003;14672;50.250;8.312;2022-12-13T02:02:22;39.60;31.60;12.40
27143;PMS1003;14672;50.250;8.312;2022-12-13T02:07:28;31.60;24.00;12.00
27143;PMS1003;14672;50.250;8.312;2022-12-13T02:09:57;29.50;24.00;11.50
27143;PMS1003;14672;50.250;8.312;2022-12-13T02:12:28;30.00;26.40;13.60
27143;PMS1003;14672;50.250;8.312;2022-12-13T02:14:57;44.50;27.00;10.50
27143;PMS1003;14672;50.250;8.312;2022-12-13T02:32:03;22.50;18.50;9.50
27143;PMS1003;14672;50.250;8.312;2022-12-13T02:40:33;27.00;23.50;14.00
27143;PMS1003;14672;50.250;8.312;2022-12-13T02:43:08;34.80;29.20;14.00
27143;PMS1003;14672;50.250;8.312;2022-12-13T02:45:49;33.00;28.00;14.00
27143;PMS1003;14672;50.250;8.312;2022-12-13T02:48:24;36.00;27.60;14.00
27143;PMS1003;14672;50.250;8.312;2022-12-13T02:50:55;27.60;26.00;14.40
27143;PMS1003;14672;50.250;8.312;2022-12-13T02:53:25;29.00;27.50;10.00
27143;PMS1003;14672;50.250;8.312;2022-12-13T02:55:51;29.60;27.20;12.40
27143;PMS1003;14672;50.250;8.312;2022-12-13T02:58:18;29.33;26.00;11.33
27143;PMS1003;14672;50.250;8.312;2022-12-13T03:03:51;29.60;24.00;13.20
27143;PMS1003;14672;50.250;8.312;2022-12-13T03:06:42;24.00;24.00;11.00
27143;PMS1003;14672;50.250;8.312;2022-12-13T03:12:32;31.60;29.20;16.40
27143;PMS1003;14672;50.250;8.312;2022-12-13T03:15:29;23.20;22.40;8.40
27143;PMS1003;14672;50.250;8.312;2022-12-13T03:18:22;26.00;24.00;12.00
27143;PMS1003;14672;50.250;8.312;2022-12-13T03:20:55;24.00;24.00;10.00
27143;PMS1003;14672;50.250;8.312;2022-12-13T03:23:24;26.00;24.00;10.00
27143;PMS1003;14672;50.250;8.312;2022-12-13T03:25:56;31.20;26.00;12.40
27143;PMS1003;14672;50.250;8.312;2022-12-13T03:28:34;21.50;20.50;8.50
27143;PMS1003;14672;50.250;8.312;2022-12-13T03:31:01;26.80;25.60;11.20
27143;PMS1003;14672;50.250;8.312;2022-12-13T03:33:27;32.00;27.00;12.50
27143;PMS1003;14672;50.250;8.312;2022-12-13T03:35:53;32.00;29.20;10.00
27143;PMS1003;14672;50.250;8.312;2022-12-13T03:38:19;24.00;21.00;9.50
27143;PMS1003;14672;50.250;8.312;2022-12-13T03:40:45;29.00;23.50;13.00
27143;PMS1003;14672;50.250;8.312;2022-12-13T03:43:11;23.00;18.50;8.00
27143;PMS1003;14672;50.250;8.312;2022-12-13T03:45:37;26.50;22.00;8.00
27143;PMS1003;14672;50.250;8.312;2022-12-13T03:48:03;24.67;21.33;10.00
27143;PMS1003;14672;50.250;8.312;2022-12-13T03:50:28;31.33;24.67;12.00
27143;PMS1003;14672;50.250;8.312;2022-12-13T03:52:58;35.33;30.00;10.00
27143;PMS1003;14672;50.250;8.312;2022-12-13T03:55:25;26.50;21.50;8.00
27143;PMS1003;14672;50.250;8.312;2022-12-13T03:57:52;28.00;24.00;10.50
27143;PMS1003;14672;50.250;8.312;2022-12-13T04:00:17;25.33;23.33;12.00
27143;PMS1003;14672;50.250;8.312;2022-12-13T04:02:44;25.00;22.00;13.00
27143;PMS1003;14672;50.250;8.312;2022-12-13T04:05:09;22.67;19.33;8.67
27143;PMS1003;14672;50.250;8.312;2022-12-13T04:07:35;26.50;24.00;12.50
27143;PMS1003;14672;50.250;8.312;2022-12-13T04:10:02;20.67;18.67;10.00
27143;PMS1003;14672;50.250;8.312;2022-12-13T04:12:28;32.00;28.40;8.80
27143;PMS1003;14672;50.250;8.312;2022-12-13T04:15:13;23.20;21.20;8.80
27143;PMS1003;14672;50.250;8.312;2022-12-13T04:17:38;21.33;18.00;6.00
27143;PMS1003;14672;50.250;8.312;2022-12-13T04:20:04;23.00;21.00;11.00
27143;PMS1003;14672;50.250;8.312;2022-12-13T04:22:31;28.00;22.00;8.00
27143;PMS1003;14672;50.250;8.312;2022-12-13T04:24:57;27.00;24.00;10.00
27143;PMS1003;14672;50.250;8.312;2022-12-13T04:27:22;28.00;23.00;10.00
27143;PMS1003;14672;50.250;8.312;2022-12-13T04:29:48;26.50;22.50;10.00
27143;PMS1003;14672;50.250;8.312;2022-12-13T04:32:14;20.67;20.00;10.00
27143;PMS1003;14672;50.250;8.312;2022-12-13T04:34:39;24.00;24.00;12.00
27143;PMS1003;14672;50.250;8.312;2022-12-13T04:37:05;24.00;22.00;13.00
27143;PMS1003;14672;50.250;8.312;2022-12-13T04:39:31;24.67;22.00;8.00
27143;PMS1003;14672;50.250;8.312;2022-12-13T04:41:57;28.67;25.33;11.33
27143;PMS1003;14672;50.250;8.312;2022-12-13T04:44:22;29.00;27.00;12.00
27143;PMS1003;14672;50.250;8.312;2022-12-13T04:46:48;31.50;28.50;8.00
27143;PMS1003;14672;50.250;8.312;2022-12-13T04:49:14;28.00;26.00;14.00
27143;PMS1003;14672;50.250;8.312;2022-12-13T04:51:40;20.80;18.80;7.20
27143;PMS1003;14672;50.250;8.312;2022-12-13T04:54:06;28.50;27.00;11.50
27143;PMS1003;14672;50.250;8.312;2022-12-13T04:56:32;29.50;26.50;12.00
27143;PMS1003;14672;50.250;8.312;2022-12-13T04:58:57;30.00;27.50;12.50
27143;PMS1003;14672;50.250;8.312;2022-12-13T05:01:23;23.50;20.00;9.50
27143;PMS1003;14672;50.250;8.312;2022-12-13T05:03:49;23.50;22.50;12.00
27143;PMS1003;14672;50.250;8.312;2022-12-13T05:06:15;24.00;23.00;10.50
27143;PMS1003;14672;50.250;8.312;2022-12-13T05:08:40;32.00;26.50;14.00
27143;PMS1003;14672;50.250;8.312;2022-12-13T05:11:06;26.00;22.67;10.00
27143;PMS1003;14672;50.250;8.312;2022-12-13T05:13:34;25.20;24.00;10.40
27143;PMS1003;14672;50.250;8.312;2022-12-13T05:16:01;25.33;24.00;11.33
27143;PMS1003;14672;50.250;8.312;2022-12-13T05:18:31;30.40;28.00;10.40
27143;PMS1003;14672;50.250;8.312;2022-12-13T05:21:01;29.50;23.50;10.50
27143;PMS1003;14672;50.250;8.312;2022-12-13T05:23:32;31.20;22.80;10.00
27143;PMS1003;14672;50.250;8.312;2022-12-13T05:25:58;23.60;20.80;8.00
27143;PMS1003;14672;50.250;8.312;2022-12-13T05:28:26;26.40;24.80;12.80
27143;PMS1003;14672;50.250;8.312;2022-12-13T05:30:53;26.00;23.20;12.40
27143;PMS1003;14672;50.250;8.312;2022-12-13T05:33:29;26.40;23.20;11.20
27143;PMS1003;14672;50.250;8.312;2022-12-13T05:35:55;26.00;24.00;8.50
27143;PMS1003;14672;50.250;8.312;2022-12-13T05:38:21;28.50;22.00;10.00
27143;PMS1003;14672;50.250;8.312;2022-12-13T05:40:46;20.00;17.00;7.00
27143;PMS1003;14672;50.250;8.312;2022-12-13T05:43:12;30.00;26.67;9.33
27143;PMS1003;14672;50.250;8.312;2022-12-13T05:45:38;17.33;17.33;8.00
27143;PMS1003;14672;50.250;8.312;2022-12-13T05:48:04;29.00;27.00;15.50
27143;PMS1003;14672;50.250;8.312;2022-12-13T05:50:30;31.33;26.00;12.67
27143;PMS1003;14672;50.250;8.312;2022-12-13T05:52:55;30.00;26.00;8.67
27143;PMS1003;14672;50.250;8.312;2022-12-13T05:55:21;29.00;27.00;12.00
27143;PMS1003;14672;50.250;8.312;2022-12-13T05:57:47;29.50;25.50;10.00
27143;PMS1003;14672;50.250;8.312;2022-12-13T06:00:13;31.50;28.00;10.00
27143;PMS1003;14672;50.250;8.312;2022-12-13T06:02:40;31.60;28.00;10.40
27143;PMS1003;14672;50.250;8.312;2022-12-13T06:05:08;27.20;24.00;10.00
27143;PMS1003;14672;50.250;8.312;2022-12-13T06:07:35;26.40;22.40;11.60
27143;PMS1003;14672;50.250;8.312;2022-12-13T06:10:05;27.20;23.60;10.00
27143;PMS1003;14672;50.250;8.312;2022-12-13T06:12:35;33.20;25.60;9.20
27143;PMS1003;14672;50.250;8.312;2022-12-13T06:15:02;26.40;23.20;10.40
27143;PMS1003;14672;50.250;8.312;2022-12-13T06:17:32;28.80;24.80;10.80
27143;PMS1003;14672;50.250;8.312;2022-12-13T06:20:00;27.20;26.40;10.40
27143;PMS1003;14672;50.250;8.312;2022-12-13T06:22:28;27.20;22.80;10.00
27143;PMS1003;14672;50.250;8.312;2022-12-13T06:24:53;18.50;18.50;10.00
27143;PMS1003;14672;50.250;8.312;2022-12-13T06:27:19;20.00;18.00;8.50
27143;PMS1003;14672;50.250;8.312;2022-12-13T06:29:45;21.50;18.50;8.00
27143;PMS1003;14672;50.250;8.312;2022-12-13T06:32:11;25.33;22.67;7.33
27143;PMS1003;14672;50.250;8.312;2022-12-13T06:34:37;21.50;21.00;9.00
27143;PMS1003;14672;50.250;8.312;2022-12-13T06:37:04;27.50;21.00;8.50
27143;PMS1003;14672;50.250;8.312;2022-12-13T06:39:32;25.50;23.00;8.00
27143;PMS1003;14672;50.250;8.312;2022-12-13T06:41:59;26.80;24.40;11.60
27143;PMS1003;14672;50.250;8.312;2022-12-13T06:44:27;26.00;26.00;12.00
27143;PMS1003;14672;50.250;8.312;2022-12-13T06:46:53;32.00;28.50;12.00
27143;PMS1003;14672;50.250;8.312;2022-12-13T06:49:18;22.50;21.00;6.50
27143;PMS1003;14672;50.250;8.312;2022-12-13T06:51:44;19.33;19.33;8.67
27143;PMS1003;14672;50.250;8.312;2022-12-13T06:54:10;27.00;23.00;8.00
27143;PMS1003;14672;50.250;8.312;2022-12-13T06:56:36;27.50;25.50;12.00
27143;PMS1003;14672;50.250;8.312;2022-12-13T06:59:01;30.50;24.50;11.50
27143;PMS1003;14672;50.250;8.312;2022-12-13T07:01:27;25.00;21.00;9.00
27143;PMS1003;14672;50.250;8.312;2022-12-13T07:03:53;22.00;19.60;8.80
27143;PMS1003;14672;50.250;8.312;2022-12-13T07:06:21;22.40;20.40;9.20
27143;PMS1003;14672;50.250;8.312;2022-12-13T07:08:49;25.20;21.60;9.20
27143;PMS1003;14672;50.250;8.312;2022-12-13T07:11:20;30.40;23.20;8.40
27143;PMS1003;14672;50.250;8.312;2022-12-13T07:13:52;19.50;17.50;6.00
27143;PMS1003;14672;50.250;8.312;2022-12-13T07:16:19;25.60;24.00;10.00
27143;PMS1003;14672;50.250;8.312;2022-12-13T07:18:52;35.60;24.80;7.60
27143;PMS1003;14672;50.250;8.312;2022-12-13T07:21:23;24.80;24.00;9.60
27143;PMS1003;14672;50.250;8.312;2022-12-13T07:23:49;26.40;23.60;12.00
27143;PMS1003;14672;50.250;8.312;2022-12-13T07:26:16;26.80;24.00;10.40
27143;PMS1003;14672;50.250;8.312;2022-12-13T07:28:42;33.60;26.40;10.80
27143;PMS1003;14672;50.250;8.312;2022-12-13T07:31:08;27.50;26.00;10.50
27143;PMS1003;14672;50.250;8.312;2022-12-13T07:33:35;32.40;27.60;10.00
27143;PMS1003;14672;50.250;8.312;2022-12-13T07:36:02;22.80;22.00;12.00
27143;PMS1003;14672;50.250;8.312;2022-12-13T07:38:31;20.40;20.00;8.40
27143;PMS1003;14672;50.250;8.312;2022-12-13T07:40:58;35.50;21.50;10.00
27143;PMS1003;14672;50.250;8.312;2022-12-13T07:43:24;31.20;27.60;11.60
27143;PMS1003;14672;50.250;8.312;2022-12-13T07:45:50;28.80;26.00;13.60
27143;PMS1003;14672;50.250;8.312;2022-12-13T07:48:17;28.40;28.00;12.00
27143;PMS1003;14672;50.250;8.312;2022-12-13T07:50:43;29.60;27.20;14.40
27143;PMS1003;14672;50.250;8.312;2022-12-13T07:53:10;31.60;27.60;14.00
27143;PMS1003;14672;50.250;8.312;2022-12-13T07:55:36;32.00;28.00;13.60
27143;PMS1003;14672;50.250;8.312;2022-12-13T07:58:06;33.20;31.60;14.40
27143;PMS1003;14672;50.250;8.312;2022-12-13T08:00:37;26.40;24.80;13.20
27143;PMS1003;14672;50.250;8.312;2022-12-13T08:03:04;34.00;34.00;18.40
27143;PMS1003;14672;50.250;8.312;2022-12-13T08:05:31;44.80;39.20;18.00
27143;PMS1003;14672;50.250;8.312;2022-12-13T08:07:58;41.20;33.20;16.00
27143;PMS1003;14672;50.250;8.312;2022-12-13T08:10:25;39.60;29.60;17.20
27143;PMS1003;14672;50.250;8.312;2022-12-13T08:12:52;34.40;28.40;13.20
27143;PMS1003;14672;50.250;8.312;2022-12-13T08:15:17;39.00;31.50;13.50
27143;PMS1003;14672;50.250;8.312;2022-12-13T08:17:43;37.00;30.50;13.50
27143;PMS1003;14672;50.250;8.312;2022-12-13T08:20:09;31.00;24.50;13.50
27143;PMS1003;14672;50.250;8.312;2022-12-13T08:22:35;34.80;32.00;16.40
27143;PMS1003;14672;50.250;8.312;2022-12-13T08:25:01;33.50;30.50;14.50
27143;PMS1003;14672;50.250;8.312;2022-12-13T08:27:28;27.20;27.20;14.80
27143;PMS1003;14672;50.250;8.312;2022-12-13T08:29:53;38.00;34.00;17.50
27143;PMS1003;14672;50.250;8.312;2022-12-13T08:32:19;26.50;24.50;14.00
27143;PMS1003;14672;50.250;8.312;2022-12-13T08:34:45;33.00;31.00;12.00
27143;PMS1003;14672;50.250;8.312;2022-12-13T08:37:11;29.00;27.50;14.00
27143;PMS1003;14672;50.250;8.312;2022-12-13T08:39:37;35.60;31.60;13.20
27143;PMS1003;14672;50.250;8.312;2022-12-13T08:42:13;35.20;27.60;13.20
27143;PMS1003;14672;50.250;8.312;2022-12-13T08:44:41;44.80;36.80;16.40
27143;PMS1003;14672;50.250;8.312;2022-12-13T08:47:07;50.00;42.00;22.50
27143;PMS1003;14672;50.250;8.312;2022-12-13T08:49:33;69.60;59.60;29.60
27143;PMS1003;14672;50.250;8.312;2022-12-13T08:51:59;69.00;62.50;35.00
27143;PMS1003;14672;50.250;8.312;2022-12-13T08:54:25;80.00;63.00;31.00
27143;PMS1003;14672;50.250;8.312;2022-12-13T08:56:51;55.50;52.00;31.50
27143;PMS1003;14672;50.250;8.312;2022-12-13T08:59:16;48.50;40.00;22.00
27143;PMS1003;14672;50.250;8.312;2022-12-13T09:01:43;48.40;45.60;22.00
27143;PMS1003;14672;50.250;8.312;2022-12-13T09:04:10;52.80;45.20;20.40
27143;PMS1003;14672;50.250;8.312;2022-12-13T09:06:36;49.50;38.50;18.00
27143;PMS1003;14672;50.250;8.312;2022-12-13T09:09:01;30.50;30.00;14.00
27143;PMS1003;14672;50.250;8.312;2022-12-13T09:11:27;28.50;25.00;12.00
27143;PMS1003;14672;50.250;8.312;2022-12-13T09:13:53;51.00;50.00;26.00
27143;PMS1003;14672;50.250;8.312;2022-12-13T09:16:20;47.50;40.50;20.00
27143;PMS1003;14672;50.250;8.312;2022-12-13T09:18:50;46.80;42.00;19.20
27143;PMS1003;14672;50.250;8.312;2022-12-13T09:21:17;40.80;34.80;17.20
27143;PMS1003;14672;50.250;8.312;2022-12-13T09:23:43;46.00;40.80;20.00
27143;PMS1003;14672;50.250;8.312;2022-12-13T09:26:10;46.00;40.80;18.00
27143;PMS1003;14672;50.250;8.312;2022-12-13T09:28:39;54.40;47.20;24.80
27143;PMS1003;14672;50.250;8.312;2022-12-13T09:31:09;51.20;46.80;26.40
27143;PMS1003;14672;50.250;8.312;2022-12-13T09:33:41;42.00;38.00;22.00
27143;PMS1003;14672;50.250;8.312;2022-12-13T09:36:09;44.80;38.80;21.20
27143;PMS1003;14672;50.250;8.312;2022-12-13T09:38:39;38.80;34.80;14.80
27143;PMS1003;14672;50.250;8.312;2022-12-13T09:41:20;39.20;36.40;20.00
27143;PMS1003;14672;50.250;8.312;2022-12-13T09:44:20;40.40;37.60;16.40
27143;PMS1003;14672;50.250;8.312;2022-12-13T09:46:57;34.80;30.80;14.80
27143;PMS1003;14672;50.250;8.312;2022-12-13T09:49:28;33.00;29.50;16.00
27143;PMS1003;14672;50.250;8.312;2022-12-13T09:52:12;39.60;33.20;16.80
27143;PMS1003;14672;50.250;8.312;2022-12-13T09:54:42;42.40;38.40;17.20
27143;PMS1003;14672;50.250;8.312;2022-12-13T09:57:14;39.50;35.00;15.50
27143;PMS1003;14672;50.250;8.312;2022-12-13T09:59:55;38.50;32.50;14.50
27143;PMS1003;14672;50.250;8.312;2022-12-13T10:02:23;37.50;34.00;16.50
27143;PMS1003;14672;50.250;8.312;2022-12-13T10:05:25;30.50;29.00;14.00
27143;PMS1003;14672;50.250;8.312;2022-12-13T10:07:43;41.00;34.00;14.00
27143;PMS1003;14672;50.250;8.312;2022-12-13T10:10:10;34.50;30.50;16.00
27143;PMS1003;14672;50.250;8.312;2022-12-13T10:12:38;35.50;31.50;14.00
27143;PMS1003;14672;50.250;8.312;2022-12-13T10:15:11;37.00;33.00;16.00
27143;PMS1003;14672;50.250;8.312;2022-12-13T10:17:43;40.00;33.00;15.00
27143;PMS1003;14672;50.250;8.312;2022-12-13T10:20:16;40.50;35.50;15.50
27143;PMS1003;14672;50.250;8.312;2022-12-13T10:22:46;44.00;39.00;20.50
27143;PMS1003;14672;50.250;8.312;2022-12-13T10:25:12;35.50;34.00;16.50
27143;PMS1003;14672;50.250;8.312;2022-12-13T10:27:40;41.50;35.00;18.00
27143;PMS1003;14672;50.250;8.312;2022-12-13T10:35:35;44.00;35.50;17.50
27143;PMS1003;14672;50.250;8.312;2022-12-13T10:40:39;40.00;38.00;18.50
27143;PMS1003;14672;50.250;8.312;2022-12-13T10:43:16;42.50;39.00;18.00
27143;PMS1003;14672;50.250;8.312;2022-12-13T10:48:21;51.33;48.00;20.00
27143;PMS1003;14672;50.250;8.312;2022-12-13T10:51:11;47.00;39.00;20.50
27143;PMS1003;14672;50.250;8.312;2022-12-13T10:53:44;44.00;35.50;19.50
27143;PMS1003;14672;50.250;8.312;2022-12-13T10:56:18;58.50;50.00;27.00
27143;PMS1003;14672;50.250;8.312;2022-12-13T10:58:47;65.00;54.00;28.50
27143;PMS1003;14672;50.250;8.312;2022-12-13T11:03:54;52.50;41.50;22.00
27143;PMS1003;14672;50.250;8.312;2022-12-13T11:06:28;40.50;35.50;19.00
27143;PMS1003;14672;50.250;8.312;2022-12-13T11:09:15;35.50;32.50;16.00
27143;PMS1003;14672;50.250;8.312;2022-12-13T11:11:59;27.00;23.00;12.50
27143;PMS1003;14672;50.250;8.312;2022-12-13T11:14:28;21.50;21.00;10.00
27143;PMS1003;14672;50.250;8.312;2022-12-13T11:17:06;23.50;22.00;10.50
27143;PMS1003;14672;50.250;8.312;2022-12-13T11:19:48;23.00;19.50;8.00
27143;PMS1003;14672;50.250;8.312;2022-12-13T11:22:28;22.25;21.25;8.25
27143;PMS1003;14672;50.250;8.312;2022-12-13T11:25:05;18.25;17.25;8.25
27143;PMS1003;14672;50.250;8.312;2022-12-13T11:33:26;17.00;13.75;5.00
27143;PMS1003;14672;50.250;8.312;2022-12-13T11:39:25;17.75;16.75;7.00
27143;PMS1003;14672;50.250;8.312;2022-12-13T11:42:17;15.00;14.75;6.00
27143;PMS1003;14672;50.250;8.312;2022-12-13T11:50:38;16.00;15.75;7.00
27143;PMS1003;14672;50.250;8.312;2022-12-13T11:53:27;18.25;18.00;8.50
27143;PMS1003;14672;50.250;8.312;2022-12-13T11:56:18;22.50;21.00;9.00
27143;PMS1003;14672;50.250;8.312;2022-12-13T11:59:15;21.25;19.00;9.25
27143;PMS1003;14672;50.250;8.312;2022-12-13T12:01:56;14.75;14.75;7.00
27143;PMS1003;14672;50.250;8.312;2022-12-13T12:04:53;13.00;13.00;5.00
27143;PMS1003;14672;50.250;8.312;2022-12-13T12:07:54;18.50;18.25;5.00
27143;PMS1003;14672;50.250;8.312;2022-12-13T12:16:05;17.25;15.25;6.75
27143;PMS1003;14672;50.250;8.312;2022-12-13T12:18:48;24.00;19.50;6.50
27143;PMS1003;14672;50.250;8.312;2022-12-13T12:21:35;18.00;16.00;8.00
27143;PMS1003;14672;50.250;8.312;2022-12-13T12:24:23;21.00;16.50;6.00
27143;PMS1003;14672;50.250;8.312;2022-12-13T12:27:12;20.50;18.50;7.50
27143;PMS1003;14672;50.250;8.312;2022-12-13T12:30:03;20.00;20.00;8.00
27143;PMS1003;14672;50.250;8.312;2022-12-13T12:32:46;17.50;15.00;6.50
27143;PMS1003;14672;50.250;8.312;2022-12-13T12:47:48;14.00;14.00;6.00
27143;PMS1003;14672;50.250;8.312;2022-12-13T12:56:01;21.50;17.50;7.50
27143;PMS1003;14672;50.250;8.312;2022-12-13T13:03:54;19.00;17.50;6.00
27143;PMS1003;14672;50.250;8.312;2022-12-13T13:06:30;26.50;25.50;10.00
27143;PMS1003;14672;50.250;8.312;2022-12-13T13:09:11;24.50;18.50;8.00
27143;PMS1003;14672;50.250;8.312;2022-12-13T13:11:41;17.00;16.00;8.00
27143;PMS1003;14672;50.250;8.312;2022-12-13T13:16:54;19.00;17.50;8.00
27143;PMS1003;14672;50.250;8.312;2022-12-13T13:21:57;18.50;18.00;4.50
27143;PMS1003;14672;50.250;8.312;2022-12-13T13:24:24;17.00;16.00;6.50
27143;PMS1003;14672;50.250;8.312;2022-12-13T13:27:26;24.00;21.00;11.50
27143;PMS1003;14672;50.250;8.312;2022-12-13T13:30:14;19.50;16.50;6.00
27143;PMS1003;14672;50.250;8.312;2022-12-13T13:32:49;18.00;16.00;4.50
27143;PMS1003;14672;50.250;8.312;2022-12-13T13:40:45;17.00;16.00;8.00
27143;PMS1003;14672;50.250;8.312;2022-12-13T13:45:54;15.00;13.00;6.50
27143;PMS1003;14672;50.250;8.312;2022-12-13T13:51:24;24.50;19.50;7.00
27143;PMS1003;14672;50.250;8.312;2022-12-13T14:00:23;14.00;13.50;4.00
27143;PMS1003;14672;50.250;8.312;2022-12-13T14:11:17;24.50;18.50;6.50
27143;PMS1003;14672;50.250;8.312;2022-12-13T14:14:47;22.50;18.50;8.00
27143;PMS1003;14672;50.250;8.312;2022-12-13T14:23:27;25.00;20.50;8.00
27143;PMS1003;14672;50.250;8.312;2022-12-13T14:31:16;23.00;22.50;10.50
27143;PMS1003;14672;50.250;8.312;2022-12-13T14:33:47;23.00;20.00;10.50
27143;PMS1003;14672;50.250;8.312;2022-12-13T14:36:16;20.00;20.00;8.50
27143;PMS1003;14672;50.250;8.312;2022-12-13T14:39:15;18.00;16.00;8.00
27143;PMS1003;14672;50.250;8.312;2022-12-13T14:41:45;16.50;16.00;7.00
27143;PMS1003;14672;50.250;8.312;2022-12-13T14:44:23;26.50;23.50;12.00
27143;PMS1003;14672;50.250;8.312;2022-12-13T14:46:55;23.00;20.50;7.50
27143;PMS1003;14672;50.250;8.312;2022-12-13T14:49:25;13.50;13.50;6.00
27143;PMS1003;14672;50.250;8.312;2022-12-13T14:51:54;25.00;22.00;9.00
27143;PMS1003;14672;50.250;8.312;2022-12-13T14:54:26;18.00;15.50;6.00
27143;PMS1003;14672;50.250;8.312;2022-12-13T14:57:01;25.00;23.50;10.50
27143;PMS1003;14672;50.250;8.312;2022-12-13T14:59:29;28.00;21.00;10.00
27143;PMS1003;14672;50.250;8.312;2022-12-13T15:02:00;22.50;20.00;8.00
27143;PMS1003;14672;50.250;8.312;2022-12-13T15:04:30;22.50;22.50;9.00
27143;PMS1003;14672;50.250;8.312;2022-12-13T15:07:03;20.00;18.50;10.50
27143;PMS1003;14672;50.250;8.312;2022-12-13T15:09:40;25.00;24.00;10.00
27143;PMS1003;14672;50.250;8.312;2022-12-13T15:12:09;26.50;21.50;9.00
27143;PMS1003;14672;50.250;8.312;2022-12-13T15:14:42;22.00;19.50;8.00
27143;PMS1003;14672;50.250;8.312;2022-12-13T15:17:22;31.00;24.00;10.00
27143;PMS1003;14672;50.250;8.312;2022-12-13T15:19:52;22.50;22.00;8.50
27143;PMS1003;14672;50.250;8.312;2022-12-13T15:22:18;20.50;20.50;7.50
27143;PMS1003;14672;50.250;8.312;2022-12-13T15:24:44;20.00;18.00;8.00
27143;PMS1003;14672;50.250;8.312;2022-12-13T15:27:13;19.50;19.50;8.50
27143;PMS1003;14672;50.250;8.312;2022-12-13T15:29:42;22.00;22.00;9.00
27143;PMS1003;14672;50.250;8.312;2022-12-13T15:32:12;29.50;24.50;12.00
27143;PMS1003;14672;50.250;8.312;2022-12-13T15:34:43;18.00;17.50;9.50
27143;PMS1003;14672;50.250;8.312;2022-12-13T15:37:17;28.50;24.50;10.50
27143;PMS1003;14672;50.250;8.312;2022-12-13T15:39:58;22.00;21.00;8.00
27143;PMS1003;14672;50.250;8.312;2022-12-13T15:42:34;21.50;21.50;10.50
27143;PMS1003;14672;50.250;8.312;2022-12-13T15:45:04;22.50;19.00;8.00
27143;PMS1003;14672;50.250;8.312;2022-12-13T15:47:44;19.50;19.00;8.00
27143;PMS1003;14672;50.250;8.312;2022-12-13T15:52:59;20.50;19.00;7.50
27143;PMS1003;14672;50.250;8.312;2022-12-13T15:55:33;38.50;29.50;12.00
27143;PMS1003;14672;50.250;8.312;2022-12-13T15:58:01;33.00;28.00;12.00
27143;PMS1003;14672;50.250;8.312;2022-12-13T16:00:28;23.00;22.50;10.00
27143;PMS1003;14672;50.250;8.312;2022-12-13T16:05:46;30.50;27.00;13.50
27143;PMS1003;14672;50.250;8.312;2022-12-13T16:08:29;20.50;20.50;11.00
27143;PMS1003;14672;50.250;8.312;2022-12-13T16:11:02;19.50;19.00;8.00
27143;PMS1003;14672;50.250;8.312;2022-12-13T16:13:34;24.50;22.00;12.00
27143;PMS1003;14672;50.250;8.312;2022-12-13T16:18:53;25.50;22.00;9.50
27143;PMS1003;14672;50.250;8.312;2022-12-13T16:21:25;23.00;19.50;9.00
27143;PMS1003;14672;50.250;8.312;2022-12-13T16:23:52;27.50;27.00;12.00
27143;PMS1003;14672;50.250;8.312;2022-12-13T16:26:22;22.00;22.00;10.00
27143;PMS1003;14672;50.250;8.312;2022-12-13T16:28:51;21.00;18.00;9.00